sensor_id;sensor_type;location;lat;lon;timestamp;temperature;humidity
15700;DHT22;7950;42.744;23.174;2023-02-28T00:01:56;6.30;99.90
15700;DHT22;7950;42.744;23.174;2023-02-28T00:04:24;6.20;99.90
15700;DHT22;7950;42.744;23.174;2023-02-28T00:06:54;6.20;99.90
15700;DHT22;7950;42.744;23.174;2023-02-28T00:09:22;6.30;99.90
15700;DHT22;7950;42.744;23.174;2023-02-28T00:11:51;6.20;99.90
15700;DHT22;7950;42.744;23.174;2023-02-28T00:14:32;6.20;99.90
15700;DHT22;7950;42.744;23.174;2023-02-28T00:17:00;6.20;99.90
15700;DHT22;7950;42.744;23.174;2023-02-28T00:19:29;6.20;99.90
15700;DHT22;7950;42.744;23.174;2023-02-28T00:21:57;6.10;99.90
15700;DHT22;7950;42.744;23.174;2023-02-28T00:24:25;6.10;99.90
15700;DHT22;7950;42.744;23.174;2023-02-28T00:26:54;6.10;99.90
15700;DHT22;7950;42.744;23.174;2023-02-28T00:29:23;6.10;99.90
15700;DHT22;7950;42.744;23.174;2023-02-28T00:31:52;6.10;99.90
15700;DHT22;7950;42.744;23.174;2023-02-28T00:34:35;6.10;99.90
15700;DHT22;7950;42.744;23.174;2023-02-28T00:37:05;6.10;99.90
15700;DHT22;7950;42.744;23.174;2023-02-28T00:39:36;6.10;99.90
15700;DHT22;7950;42.744;23.174;2023-02-28T00:42:06;6.10;99.90
15700;DHT22;7950;42.744;23.174;2023-02-28T00:44:35;6.10;99.90
15700;DHT22;7950;42.744;23.174;2023-02-28T00:47:05;6.10;99.90
15700;DHT22;7950;42.744;23.174;2023-02-28T00:49:33;6.00;99.90
15700;DHT22;7950;42.744;23.174;2023-02-28T00:52:02;6.00;99.90
15700;DHT22;7950;42.744;23.174;2023-02-28T00:54:31;6.00;99.90
15700;DHT22;7950;42.744;23.174;2023-02-28T00:56:59;5.90;99.90
15700;DHT22;7950;42.744;23.174;2023-02-28T00:59:28;5.90;99.90
15700;DHT22;7950;42.744;23.174;2023-02-28T01:01:56;5.90;99.90
15700;DHT22;7950;42.744;23.174;2023-02-28T01:04:26;5.90;99.90
15700;DHT22;7950;42.744;23.174;2023-02-28T01:06:55;5.90;99.90
15700;DHT22;7950;42.744;23.174;2023-02-28T01:09:23;5.90;99.90
15700;DHT22;7950;42.744;23.174;2023-02-28T01:11:52;5.90;99.90
15700;DHT22;7950;42.744;23.174;2023-02-28T01:14:20;5.90;99.90
15700;DHT22;7950;42.744;23.174;2023-02-28T01:16:49;5.90;99.90
15700;DHT22;7950;42.744;23.174;2023-02-28T01:19:18;6.00;99.90
15700;DHT22;7950;42.744;23.174;2023-02-28T01:21:48;6.00;99.90
15700;DHT22;7950;42.744;23.174;2023-02-28T01:24:17;6.00;99.90
15700;DHT22;7950;42.744;23.174;2023-02-28T01:26:45;6.00;99.90
15700;DHT22;7950;42.744;23.174;2023-02-28T01:29:15;6.00;99.90
15700;DHT22;7950;42.744;23.174;2023-02-28T01:32:09;6.00;99.90
15700;DHT22;7950;42.744;23.174;2023-02-28T01:34:37;6.00;99.90
15700;DHT22;7950;42.744;23.174;2023-02-28T01:37:07;6.00;99.90
15700;DHT22;7950;42.744;23.174;2023-02-28T01:39:36;6.00;99.90
15700;DHT22;7950;42.744;23.174;2023-02-28T01:42:04;6.00;99.90
15700;DHT22;7950;42.744;23.174;2023-02-28T01:47:51;6.00;99.90
15700;DHT22;7950;42.744;23.174;2023-02-28T01:50:26;6.00;99.90
15700;DHT22;7950;42.744;23.174;2023-02-28T01:53:02;6.00;99.90
15700;DHT22;7950;42.744;23.174;2023-02-28T01:55:34;6.10;99.90
15700;DHT22;7950;42.744;23.174;2023-02-28T01:58:05;6.10;99.90
15700;DHT22;7950;42.744;23.174;2023-02-28T02:00:35;6.10;99.90
15700;DHT22;7950;42.744;23.174;2023-02-28T02:03:09;6.10;99.90
15700;DHT22;7950;42.744;23.174;2023-02-28T02:05:43;6.20;99.90
15700;DHT22;7950;42.744;23.174;2023-02-28T02:08:19;6.20;99.90
15700;DHT22;7950;42.744;23.174;2023-02-28T02:10:52;6.20;99.90
15700;DHT22;7950;42.744;23.174;2023-02-28T02:13:41;6.20;99.90
15700;DHT22;7950;42.744;23.174;2023-02-28T02:16:34;6.20;99.90
15700;DHT22;7950;42.744;23.174;2023-02-28T02:19:40;6.20;99.90
15700;DHT22;7950;42.744;23.174;2023-02-28T02:22:56;6.20;99.90
15700;DHT22;7950;42.744;23.174;2023-02-28T02:25:39;6.20;99.90
15700;DHT22;7950;42.744;23.174;2023-02-28T02:32:15;6.30;99.90
15700;DHT22;7950;42.744;23.174;2023-02-28T02:35:04;6.30;99.90
15700;DHT22;7950;42.744;23.174;2023-02-28T02:37:45;6.30;99.90
15700;DHT22;7950;42.744;23.174;2023-02-28T02:40:20;6.30;99.90
15700;DHT22;7950;42.744;23.174;2023-02-28T02:42:53;6.30;99.90
15700;DHT22;7950;42.744;23.174;2023-02-28T02:45:31;6.40;99.90
15700;DHT22;7950;42.744;23.174;2023-02-28T02:48:05;6.40;99.90
15700;DHT22;7950;42.744;23.174;2023-02-28T02:51:03;6.40;99.90
15700;DHT22;7950;42.744;23.174;2023-02-28T02:53:42;6.40;99.90
15700;DHT22;7950;42.744;23.174;2023-02-28T02:56:19;6.40;99.90
15700;DHT22;7950;42.744;23.174;2023-02-28T02:58:54;6.40;99.90
15700;DHT22;7950;42.744;23.174;2023-02-28T03:01:29;6.40;99.90
15700;DHT22;7950;42.744;23.174;2023-02-28T03:04:02;6.40;99.90
15700;DHT22;7950;42.744;23.174;2023-02-28T03:06:34;6.40;99.90
15700;DHT22;7950;42.744;23.174;2023-02-28T03:09:03;6.40;99.90
15700;DHT22;7950;42.744;23.174;2023-02-28T03:11:33;6.40;99.90
15700;DHT22;7950;42.744;23.174;2023-02-28T03:14:22;6.40;99.90
15700;DHT22;7950;42.744;23.174;2023-02-28T03:17:31;6.50;99.90
15700;DHT22;7950;42.744;23.174;2023-02-28T03:20:27;6.50;99.90
15700;DHT22;7950;42.744;23.174;2023-02-28T03:23:13;6.50;99.90
15700;DHT22;7950;42.744;23.174;2023-02-28T03:25:53;6.40;99.90
15700;DHT22;7950;42.744;23.174;2023-02-28T03:28:31;6.40;99.90
15700;DHT22;7950;42.744;23.174;2023-02-28T03:31:14;6.30;99.90
15700;DHT22;7950;42.744;23.174;2023-02-28T03:33:51;6.30;99.90
15700;DHT22;7950;42.744;23.174;2023-02-28T03:36:29;6.30;99.90
15700;DHT22;7950;42.744;23.174;2023-02-28T03:39:07;6.30;99.90
15700;DHT22;7950;42.744;23.174;2023-02-28T03:45:02;6.20;99.90
15700;DHT22;7950;42.744;23.174;2023-02-28T03:47:38;6.10;99.90
15700;DHT22;7950;42.744;23.174;2023-02-28T03:50:14;6.10;99.90
15700;DHT22;7950;42.744;23.174;2023-02-28T03:52:49;6.10;99.90
15700;DHT22;7950;42.744;23.174;2023-02-28T03:55:23;6.10;99.90
15700;DHT22;7950;42.744;23.174;2023-02-28T03:57:57;6.00;99.90
15700;DHT22;7950;42.744;23.174;2023-02-28T04:00:32;5.90;99.90
15700;DHT22;7950;42.744;23.174;2023-02-28T04:03:03;6.00;99.90
15700;DHT22;7950;42.744;23.174;2023-02-28T04:05:33;6.00;99.90
15700;DHT22;7950;42.744;23.174;2023-02-28T04:08:17;6.00;99.90
15700;DHT22;7950;42.744;23.174;2023-02-28T04:10:51;6.00;99.90
15700;DHT22;7950;42.744;23.174;2023-02-28T04:13:29;6.10;99.90
15700;DHT22;7950;42.744;23.174;2023-02-28T04:15:57;6.10;99.90
15700;DHT22;7950;42.744;23.174;2023-02-28T04:18:26;6.10;99.90
15700;DHT22;7950;42.744;23.174;2023-02-28T04:20:54;6.20;99.90
15700;DHT22;7950;42.744;23.174;2023-02-28T04:23:23;6.20;99.90
15700;DHT22;7950;42.744;23.174;2023-02-28T04:25:56;6.20;99.90
15700;DHT22;7950;42.744;23.174;2023-02-28T04:28:25;6.20;99.90
15700;DHT22;7950;42.744;23.174;2023-02-28T04:30:55;6.20;99.90
15700;DHT22;7950;42.744;23.174;2023-02-28T04:33:24;6.20;99.90
15700;DHT22;7950;42.744;23.174;2023-02-28T04:39:12;6.20;99.90
15700;DHT22;7950;42.744;23.174;2023-02-28T04:41:43;6.20;99.90
15700;DHT22;7950;42.744;23.174;2023-02-28T04:44:11;6.30;99.90
15700;DHT22;7950;42.744;23.174;2023-02-28T04:46:41;6.30;99.90
15700;DHT22;7950;42.744;23.174;2023-02-28T04:49:11;6.30;99.90
15700;DHT22;7950;42.744;23.174;2023-02-28T04:51:41;6.30;99.90
15700;DHT22;7950;42.744;23.174;2023-02-28T04:54:09;6.30;99.90
15700;DHT22;7950;42.744;23.174;2023-02-28T04:57:04;6.40;99.90
15700;DHT22;7950;42.744;23.174;2023-02-28T04:59:33;6.40;99.90
15700;DHT22;7950;42.744;23.174;2023-02-28T05:02:01;6.30;99.90
15700;DHT22;7950;42.744;23.174;2023-02-28T05:04:34;6.30;99.90
15700;DHT22;7950;42.744;23.174;2023-02-28T05:07:03;6.30;99.90
15700;DHT22;7950;42.744;23.174;2023-02-28T05:09:32;6.30;99.90
15700;DHT22;7950;42.744;23.174;2023-02-28T05:12:01;6.30;99.90
15700;DHT22;7950;42.744;23.174;2023-02-28T05:14:31;6.30;99.90
15700;DHT22;7950;42.744;23.174;2023-02-28T05:17:06;6.20;99.90
15700;DHT22;7950;42.744;23.174;2023-02-28T05:22:54;6.20;99.90
15700;DHT22;7950;42.744;23.174;2023-02-28T05:25:23;6.20;99.90
15700;DHT22;7950;42.744;23.174;2023-02-28T05:27:51;6.20;99.90
15700;DHT22;7950;42.744;23.174;2023-02-28T05:30:21;6.20;99.90
15700;DHT22;7950;42.744;23.174;2023-02-28T05:32:50;6.30;99.90
15700;DHT22;7950;42.744;23.174;2023-02-28T05:35:19;6.30;99.90
15700;DHT22;7950;42.744;23.174;2023-02-28T05:37:48;6.30;99.90
15700;DHT22;7950;42.744;23.174;2023-02-28T05:40:17;6.30;99.90
15700;DHT22;7950;42.744;23.174;2023-02-28T05:42:47;6.30;99.90
15700;DHT22;7950;42.744;23.174;2023-02-28T05:45:18;6.40;99.90
15700;DHT22;7950;42.744;23.174;2023-02-28T05:47:47;6.40;99.90
15700;DHT22;7950;42.744;23.174;2023-02-28T05:50:16;6.40;99.90
15700;DHT22;7950;42.744;23.174;2023-02-28T05:52:48;6.30;99.90
15700;DHT22;7950;42.744;23.174;2023-02-28T05:55:17;6.30;99.90
15700;DHT22;7950;42.744;23.174;2023-02-28T05:57:46;6.30;99.90
15700;DHT22;7950;42.744;23.174;2023-02-28T06:00:15;6.30;99.90
15700;DHT22;7950;42.744;23.174;2023-02-28T06:02:44;6.30;99.90
15700;DHT22;7950;42.744;23.174;2023-02-28T06:05:16;6.30;99.90
15700;DHT22;7950;42.744;23.174;2023-02-28T06:07:45;6.30;99.90
15700;DHT22;7950;42.744;23.174;2023-02-28T06:10:14;6.40;99.90
15700;DHT22;7950;42.744;23.174;2023-02-28T06:12:42;6.40;99.90
15700;DHT22;7950;42.744;23.174;2023-02-28T06:15:12;6.40;99.90
15700;DHT22;7950;42.744;23.174;2023-02-28T06:17:42;6.50;99.90
15700;DHT22;7950;42.744;23.174;2023-02-28T06:20:13;6.50;99.90
15700;DHT22;7950;42.744;23.174;2023-02-28T06:22:42;6.50;99.90
15700;DHT22;7950;42.744;23.174;2023-02-28T06:25:11;6.50;99.90
15700;DHT22;7950;42.744;23.174;2023-02-28T06:27:39;6.50;99.90
15700;DHT22;7950;42.744;23.174;2023-02-28T06:30:09;6.50;99.90
15700;DHT22;7950;42.744;23.174;2023-02-28T06:32:38;6.50;99.90
15700;DHT22;7950;42.744;23.174;2023-02-28T06:35:33;6.50;99.90
15700;DHT22;7950;42.744;23.174;2023-02-28T06:38:02;6.50;99.90
15700;DHT22;7950;42.744;23.174;2023-02-28T06:40:31;6.50;99.90
15700;DHT22;7950;42.744;23.174;2023-02-28T06:43:06;6.60;99.90
15700;DHT22;7950;42.744;23.174;2023-02-28T06:45:36;6.60;99.90
15700;DHT22;7950;42.744;23.174;2023-02-28T06:48:05;6.60;99.90
15700;DHT22;7950;42.744;23.174;2023-02-28T06:50:35;6.60;99.90
15700;DHT22;7950;42.744;23.174;2023-02-28T06:53:03;6.60;99.90
15700;DHT22;7950;42.744;23.174;2023-02-28T06:55:32;6.70;99.90
15700;DHT22;7950;42.744;23.174;2023-02-28T06:58:00;6.70;99.90
15700;DHT22;7950;42.744;23.174;2023-02-28T07:00:29;6.80;99.90
15700;DHT22;7950;42.744;23.174;2023-02-28T07:02:58;6.80;99.90
15700;DHT22;7950;42.744;23.174;2023-02-28T07:05:45;6.80;99.90
15700;DHT22;7950;42.744;23.174;2023-02-28T07:08:14;6.90;99.90
15700;DHT22;7950;42.744;23.174;2023-02-28T07:10:42;6.90;99.90
15700;DHT22;7950;42.744;23.174;2023-02-28T07:13:11;7.00;99.90
15700;DHT22;7950;42.744;23.174;2023-02-28T07:15:39;7.00;99.90
15700;DHT22;7950;42.744;23.174;2023-02-28T07:18:10;7.00;99.90
15700;DHT22;7950;42.744;23.174;2023-02-28T07:20:38;7.00;99.90
15700;DHT22;7950;42.744;23.174;2023-02-28T07:23:08;7.10;99.90
15700;DHT22;7950;42.744;23.174;2023-02-28T07:25:36;7.10;99.90
15700;DHT22;7950;42.744;23.174;2023-02-28T07:28:06;7.10;99.90
15700;DHT22;7950;42.744;23.174;2023-02-28T07:30:34;7.10;99.90
15700;DHT22;7950;42.744;23.174;2023-02-28T07:33:03;7.20;99.90
15700;DHT22;7950;42.744;23.174;2023-02-28T07:35:32;7.20;99.90
15700;DHT22;7950;42.744;23.174;2023-02-28T07:38:01;7.20;99.90
15700;DHT22;7950;42.744;23.174;2023-02-28T07:40:32;7.20;99.90
15700;DHT22;7950;42.744;23.174;2023-02-28T07:43:01;7.30;99.90
15700;DHT22;7950;42.744;23.174;2023-02-28T07:45:30;7.30;99.90
15700;DHT22;7950;42.744;23.174;2023-02-28T07:48:01;7.30;99.90
15700;DHT22;7950;42.744;23.174;2023-02-28T07:50:30;7.30;99.90
15700;DHT22;7950;42.744;23.174;2023-02-28T07:52:59;7.40;99.90
15700;DHT22;7950;42.744;23.174;2023-02-28T07:55:27;7.40;99.90
15700;DHT22;7950;42.744;23.174;2023-02-28T07:57:58;7.50;99.90
15700;DHT22;7950;42.744;23.174;2023-02-28T08:00:32;7.50;99.90
15700;DHT22;7950;42.744;23.174;2023-02-28T08:03:01;7.50;99.90
15700;DHT22;7950;42.744;23.174;2023-02-28T08:05:29;7.50;99.90
15700;DHT22;7950;42.744;23.174;2023-02-28T08:07:58;7.60;99.90
15700;DHT22;7950;42.744;23.174;2023-02-28T08:10:26;7.50;99.90
15700;DHT22;7950;42.744;23.174;2023-02-28T08:12:55;7.60;99.90
15700;DHT22;7950;42.744;23.174;2023-02-28T08:15:50;7.60;99.90
15700;DHT22;7950;42.744;23.174;2023-02-28T08:18:19;7.50;99.90
15700;DHT22;7950;42.744;23.174;2023-02-28T08:20:48;7.60;99.90
15700;DHT22;7950;42.744;23.174;2023-02-28T08:23:16;7.70;99.90
15700;DHT22;7950;42.744;23.174;2023-02-28T08:25:52;7.70;99.90
15700;DHT22;7950;42.744;23.174;2023-02-28T08:28:21;7.70;99.90
15700;DHT22;7950;42.744;23.174;2023-02-28T08:30:54;7.80;99.90
15700;DHT22;7950;42.744;23.174;2023-02-28T08:33:24;7.80;99.90
15700;DHT22;7950;42.744;23.174;2023-02-28T08:36:06;7.90;99.90
15700;DHT22;7950;42.744;23.174;2023-02-28T08:38:36;7.90;99.90
15700;DHT22;7950;42.744;23.174;2023-02-28T08:41:07;8.00;99.90
15700;DHT22;7950;42.744;23.174;2023-02-28T08:43:38;8.00;99.90
15700;DHT22;7950;42.744;23.174;2023-02-28T08:46:11;8.10;99.90
15700;DHT22;7950;42.744;23.174;2023-02-28T08:48:41;8.20;99.90
15700;DHT22;7950;42.744;23.174;2023-02-28T08:51:12;8.20;99.90
15700;DHT22;7950;42.744;23.174;2023-02-28T08:54:08;8.20;99.90
15700;DHT22;7950;42.744;23.174;2023-02-28T08:56:39;8.30;99.90
15700;DHT22;7950;42.744;23.174;2023-02-28T08:59:08;8.30;99.90
15700;DHT22;7950;42.744;23.174;2023-02-28T09:01:39;8.30;99.90
15700;DHT22;7950;42.744;23.174;2023-02-28T09:04:08;8.30;99.90
15700;DHT22;7950;42.744;23.174;2023-02-28T09:06:37;8.40;99.90
15700;DHT22;7950;42.744;23.174;2023-02-28T09:09:06;8.40;99.90
15700;DHT22;7950;42.744;23.174;2023-02-28T09:11:36;8.40;99.90
15700;DHT22;7950;42.744;23.174;2023-02-28T09:14:05;8.50;99.90
15700;DHT22;7950;42.744;23.174;2023-02-28T09:16:34;8.50;99.90
15700;DHT22;7950;42.744;23.174;2023-02-28T09:19:05;8.50;99.90
15700;DHT22;7950;42.744;23.174;2023-02-28T09:24:51;8.60;99.90
15700;DHT22;7950;42.744;23.174;2023-02-28T09:27:19;8.60;99.90
15700;DHT22;7950;42.744;23.174;2023-02-28T09:29:48;8.70;99.90
15700;DHT22;7950;42.744;23.174;2023-02-28T09:32:17;8.70;99.90
15700;DHT22;7950;42.744;23.174;2023-02-28T09:34:47;8.70;99.90
15700;DHT22;7950;42.744;23.174;2023-02-28T09:37:15;8.80;99.90
15700;DHT22;7950;42.744;23.174;2023-02-28T09:39:44;8.80;99.90
15700;DHT22;7950;42.744;23.174;2023-02-28T09:42:20;8.90;99.90
15700;DHT22;7950;42.744;23.174;2023-02-28T09:44:51;8.90;99.90
15700;DHT22;7950;42.744;23.174;2023-02-28T09:47:27;8.90;99.90
15700;DHT22;7950;42.744;23.174;2023-02-28T09:50:11;9.00;99.90
15700;DHT22;7950;42.744;23.174;2023-02-28T09:53:19;9.00;99.90
15700;DHT22;7950;42.744;23.174;2023-02-28T09:55:55;9.10;99.90
15700;DHT22;7950;42.744;23.174;2023-02-28T09:58:32;9.00;99.90
15700;DHT22;7950;42.744;23.174;2023-02-28T10:01:10;9.00;99.90
15700;DHT22;7950;42.744;23.174;2023-02-28T10:03:52;9.10;99.90
15700;DHT22;7950;42.744;23.174;2023-02-28T10:06:50;9.20;99.90
15700;DHT22;7950;42.744;23.174;2023-02-28T10:09:23;9.30;99.90
15700;DHT22;7950;42.744;23.174;2023-02-28T10:11:57;9.30;99.90
15700;DHT22;7950;42.744;23.174;2023-02-28T10:14:32;9.40;99.90
15700;DHT22;7950;42.744;23.174;2023-02-28T10:17:05;9.50;99.90
15700;DHT22;7950;42.744;23.174;2023-02-28T10:19:44;9.60;99.90
15700;DHT22;7950;42.744;23.174;2023-02-28T10:22:29;9.70;99.90
15700;DHT22;7950;42.744;23.174;2023-02-28T10:25:10;9.70;99.90
15700;DHT22;7950;42.744;23.174;2023-02-28T10:27:46;9.80;99.90
15700;DHT22;7950;42.744;23.174;2023-02-28T10:30:15;9.90;99.90
15700;DHT22;7950;42.744;23.174;2023-02-28T10:32:49;10.00;99.90
15700;DHT22;7950;42.744;23.174;2023-02-28T10:35:23;10.20;99.90
15700;DHT22;7950;42.744;23.174;2023-02-28T10:37:56;10.30;99.90
15700;DHT22;7950;42.744;23.174;2023-02-28T10:40:30;10.50;99.90
15700;DHT22;7950;42.744;23.174;2023-02-28T10:43:21;10.70;99.90
15700;DHT22;7950;42.744;23.174;2023-02-28T10:45:58;10.80;99.90
15700;DHT22;7950;42.744;23.174;2023-02-28T10:48:35;10.90;99.90
15700;DHT22;7950;42.744;23.174;2023-02-28T10:51:07;10.90;99.90
15700;DHT22;7950;42.744;23.174;2023-02-28T10:53:46;11.00;99.90
15700;DHT22;7950;42.744;23.174;2023-02-28T10:56:27;11.00;99.90
15700;DHT22;7950;42.744;23.174;2023-02-28T10:58:58;11.00;99.90
15700;DHT22;7950;42.744;23.174;2023-02-28T11:01:37;11.00;99.90
15700;DHT22;7950;42.744;23.174;2023-02-28T11:04:45;11.00;99.90
15700;DHT22;7950;42.744;23.174;2023-02-28T11:07:18;11.20;99.90
15700;DHT22;7950;42.744;23.174;2023-02-28T11:09:54;11.30;99.90
15700;DHT22;7950;42.744;23.174;2023-02-28T11:12:26;11.40;99.90
15700;DHT22;7950;42.744;23.174;2023-02-28T11:15:02;11.50;99.90
15700;DHT22;7950;42.744;23.174;2023-02-28T11:17:33;11.50;99.90
15700;DHT22;7950;42.744;23.174;2023-02-28T11:20:06;11.50;99.90
15700;DHT22;7950;42.744;23.174;2023-02-28T11:22:46;11.50;99.90
15700;DHT22;7950;42.744;23.174;2023-02-28T11:25:21;11.50;99.90
15700;DHT22;7950;42.744;23.174;2023-02-28T11:27:59;11.50;99.90
15700;DHT22;7950;42.744;23.174;2023-02-28T11:30:34;11.50;99.90
15700;DHT22;7950;42.744;23.174;2023-02-28T11:33:24;11.50;99.90
15700;DHT22;7950;42.744;23.174;2023-02-28T11:35:58;11.30;99.90
15700;DHT22;7950;42.744;23.174;2023-02-28T11:38:29;11.20;99.90
15700;DHT22;7950;42.744;23.174;2023-02-28T11:41:12;11.10;99.90
15700;DHT22;7950;42.744;23.174;2023-02-28T11:43:59;11.10;99.90
15700;DHT22;7950;42.744;23.174;2023-02-28T11:46:39;11.10;99.90
15700;DHT22;7950;42.744;23.174;2023-02-28T11:49:24;11.10;99.90
15700;DHT22;7950;42.744;23.174;2023-02-28T11:52:01;11.10;99.90
15700;DHT22;7950;42.744;23.174;2023-02-28T11:54:59;11.00;99.90
15700;DHT22;7950;42.744;23.174;2023-02-28T11:57:49;11.00;99.90
15700;DHT22;7950;42.744;23.174;2023-02-28T12:00:36;11.00;99.90
15700;DHT22;7950;42.744;23.174;2023-02-28T12:03:35;10.90;99.90
15700;DHT22;7950;42.744;23.174;2023-02-28T12:06:18;10.90;99.90
15700;DHT22;7950;42.744;23.174;2023-02-28T12:12:07;11.00;99.90
15700;DHT22;7950;42.744;23.174;2023-02-28T12:18:34;11.00;99.90
15700;DHT22;7950;42.744;23.174;2023-02-28T12:21:18;11.00;99.90
15700;DHT22;7950;42.744;23.174;2023-02-28T12:24:27;11.10;99.90
15700;DHT22;7950;42.744;23.174;2023-02-28T12:27:10;11.10;99.90
15700;DHT22;7950;42.744;23.174;2023-02-28T12:29:46;11.10;99.90
15700;DHT22;7950;42.744;23.174;2023-02-28T12:32:23;11.00;99.90
15700;DHT22;7950;42.744;23.174;2023-02-28T12:34:58;11.00;99.90
15700;DHT22;7950;42.744;23.174;2023-02-28T12:37:35;11.00;99.90
15700;DHT22;7950;42.744;23.174;2023-02-28T12:40:12;11.10;99.90
15700;DHT22;7950;42.744;23.174;2023-02-28T12:42:46;11.20;99.90
15700;DHT22;7950;42.744;23.174;2023-02-28T12:45:20;11.20;99.90
15700;DHT22;7950;42.744;23.174;2023-02-28T12:47:55;11.20;99.90
15700;DHT22;7950;42.744;23.174;2023-02-28T12:50:28;11.10;99.90
15700;DHT22;7950;42.744;23.174;2023-02-28T12:53:25;11.10;99.90
15700;DHT22;7950;42.744;23.174;2023-02-28T12:56:08;11.10;99.90
15700;DHT22;7950;42.744;23.174;2023-02-28T12:58:48;11.10;99.90
15700;DHT22;7950;42.744;23.174;2023-02-28T13:01:36;11.20;99.90
15700;DHT22;7950;42.744;23.174;2023-02-28T13:04:38;11.10;99.90
15700;DHT22;7950;42.744;23.174;2023-02-28T13:10:23;11.30;99.90
15700;DHT22;7950;42.744;23.174;2023-02-28T13:12:54;11.20;99.90
15700;DHT22;7950;42.744;23.174;2023-02-28T13:15:26;11.30;99.90
15700;DHT22;7950;42.744;23.174;2023-02-28T13:17:58;11.20;99.90
15700;DHT22;7950;42.744;23.174;2023-02-28T13:20:32;11.20;99.90
15700;DHT22;7950;42.744;23.174;2023-02-28T13:23:03;11.20;99.90
15700;DHT22;7950;42.744;23.174;2023-02-28T13:25:53;11.30;99.90
15700;DHT22;7950;42.744;23.174;2023-02-28T13:28:57;11.20;99.90
15700;DHT22;7950;42.744;23.174;2023-02-28T13:31:27;11.30;99.90
15700;DHT22;7950;42.744;23.174;2023-02-28T13:34:12;11.40;99.90
15700;DHT22;7950;42.744;23.174;2023-02-28T13:36:44;11.40;99.90
15700;DHT22;7950;42.744;23.174;2023-02-28T13:39:47;11.40;99.90
15700;DHT22;7950;42.744;23.174;2023-02-28T13:42:33;11.20;99.90
15700;DHT22;7950;42.744;23.174;2023-02-28T13:45:26;11.20;99.90
15700;DHT22;7950;42.744;23.174;2023-02-28T13:47:58;11.20;99.90
15700;DHT22;7950;42.744;23.174;2023-02-28T13:50:32;11.20;99.90
15700;DHT22;7950;42.744;23.174;2023-02-28T13:56:40;11.20;99.90
15700;DHT22;7950;42.744;23.174;2023-02-28T13:59:46;11.20;99.90
15700;DHT22;7950;42.744;23.174;2023-02-28T14:02:36;11.10;99.90
15700;DHT22;7950;42.744;23.174;2023-02-28T14:05:17;11.10;99.90
15700;DHT22;7950;42.744;23.174;2023-02-28T14:07:50;11.10;99.90
15700;DHT22;7950;42.744;23.174;2023-02-28T14:10:28;11.10;99.90
15700;DHT22;7950;42.744;23.174;2023-02-28T14:13:37;11.00;99.90
15700;DHT22;7950;42.744;23.174;2023-02-28T14:16:13;11.00;99.90
15700;DHT22;7950;42.744;23.174;2023-02-28T14:18:50;11.00;99.90
15700;DHT22;7950;42.744;23.174;2023-02-28T14:21:54;10.90;99.90
15700;DHT22;7950;42.744;23.174;2023-02-28T14:24:51;10.90;99.90
15700;DHT22;7950;42.744;23.174;2023-02-28T14:27:41;10.90;99.90
15700;DHT22;7950;42.744;23.174;2023-02-28T14:33:31;10.80;99.90
15700;DHT22;7950;42.744;23.174;2023-02-28T14:36:14;10.80;99.90
15700;DHT22;7950;42.744;23.174;2023-02-28T14:38:48;10.80;99.90
15700;DHT22;7950;42.744;23.174;2023-02-28T14:41:23;10.80;99.90
15700;DHT22;7950;42.744;23.174;2023-02-28T14:44:14;10.70;99.90
15700;DHT22;7950;42.744;23.174;2023-02-28T14:46:46;10.70;99.90
15700;DHT22;7950;42.744;23.174;2023-02-28T14:49:24;10.70;99.90
15700;DHT22;7950;42.744;23.174;2023-02-28T14:52:05;10.70;99.90
15700;DHT22;7950;42.744;23.174;2023-02-28T14:54:39;10.70;99.90
15700;DHT22;7950;42.744;23.174;2023-02-28T14:57:21;10.60;99.90
15700;DHT22;7950;42.744;23.174;2023-02-28T15:00:00;10.60;99.90
15700;DHT22;7950;42.744;23.174;2023-02-28T15:02:39;10.60;99.90
15700;DHT22;7950;42.744;23.174;2023-02-28T15:05:23;10.50;99.90
15700;DHT22;7950;42.744;23.174;2023-02-28T15:08:06;10.40;99.90
15700;DHT22;7950;42.744;23.174;2023-02-28T15:10:40;10.10;99.90
15700;DHT22;7950;42.744;23.174;2023-02-28T15:13:14;10.00;99.90
15700;DHT22;7950;42.744;23.174;2023-02-28T15:15:47;9.90;99.90
15700;DHT22;7950;42.744;23.174;2023-02-28T15:19:12;9.80;99.90
15700;DHT22;7950;42.744;23.174;2023-02-28T15:21:51;9.60;99.90
15700;DHT22;7950;42.744;23.174;2023-02-28T15:24:30;9.50;99.90
15700;DHT22;7950;42.744;23.174;2023-02-28T15:27:04;9.40;99.90
15700;DHT22;7950;42.744;23.174;2023-02-28T15:29:43;9.40;99.90
15700;DHT22;7950;42.744;23.174;2023-02-28T15:32:26;9.30;99.90
15700;DHT22;7950;42.744;23.174;2023-02-28T15:34:57;9.20;99.90
15700;DHT22;7950;42.744;23.174;2023-02-28T15:37:39;9.10;99.90
15700;DHT22;7950;42.744;23.174;2023-02-28T15:40:17;9.00;99.90
15700;DHT22;7950;42.744;23.174;2023-02-28T15:43:04;8.90;99.90
15700;DHT22;7950;42.744;23.174;2023-02-28T15:45:37;8.80;99.90
15700;DHT22;7950;42.744;23.174;2023-02-28T15:48:17;8.70;99.90
15700;DHT22;7950;42.744;23.174;2023-02-28T15:50:50;8.60;99.90
15700;DHT22;7950;42.744;23.174;2023-02-28T15:53:23;8.50;99.90
15700;DHT22;7950;42.744;23.174;2023-02-28T15:55:57;8.40;99.90
15700;DHT22;7950;42.744;23.174;2023-02-28T15:58:29;8.40;99.90
15700;DHT22;7950;42.744;23.174;2023-02-28T16:01:17;8.40;99.90
15700;DHT22;7950;42.744;23.174;2023-02-28T16:03:51;8.30;99.90
15700;DHT22;7950;42.744;23.174;2023-02-28T16:06:39;8.20;99.90
15700;DHT22;7950;42.744;23.174;2023-02-28T16:09:12;8.20;99.90
15700;DHT22;7950;42.744;23.174;2023-02-28T16:11:44;8.10;99.90
15700;DHT22;7950;42.744;23.174;2023-02-28T16:14:17;8.10;99.90
15700;DHT22;7950;42.744;23.174;2023-02-28T16:16:50;8.00;99.90
15700;DHT22;7950;42.744;23.174;2023-02-28T16:19:22;8.00;99.90
15700;DHT22;7950;42.744;23.174;2023-02-28T16:21:51;7.90;99.90
15700;DHT22;7950;42.744;23.174;2023-02-28T16:24:19;7.90;99.90
15700;DHT22;7950;42.744;23.174;2023-02-28T16:26:49;7.90;99.90
15700;DHT22;7950;42.744;23.174;2023-02-28T16:29:24;7.80;99.90
15700;DHT22;7950;42.744;23.174;2023-02-28T16:32:19;7.80;99.90
15700;DHT22;7950;42.744;23.174;2023-02-28T16:34:49;7.70;99.90
15700;DHT22;7950;42.744;23.174;2023-02-28T16:37:18;7.70;99.90
15700;DHT22;7950;42.744;23.174;2023-02-28T16:39:46;7.60;99.90
15700;DHT22;7950;42.744;23.174;2023-02-28T16:42:21;7.60;99.90
15700;DHT22;7950;42.744;23.174;2023-02-28T16:44:52;7.50;99.90
15700;DHT22;7950;42.744;23.174;2023-02-28T16:47:22;7.50;99.90
15700;DHT22;7950;42.744;23.174;2023-02-28T16:49:51;7.50;99.90
15700;DHT22;7950;42.744;23.174;2023-02-28T16:52:20;7.40;99.90
15700;DHT22;7950;42.744;23.174;2023-02-28T16:54:49;7.40;99.90
15700;DHT22;7950;42.744;23.174;2023-02-28T16:57:21;7.40;99.90
15700;DHT22;7950;42.744;23.174;2023-02-28T16:59:51;7.40;99.90
15700;DHT22;7950;42.744;23.174;2023-02-28T17:02:19;7.40;99.90
15700;DHT22;7950;42.744;23.174;2023-02-28T17:04:48;7.50;99.90
15700;DHT22;7950;42.744;23.174;2023-02-28T17:07:21;7.40;99.90
15700;DHT22;7950;42.744;23.174;2023-02-28T17:09:49;7.50;99.90
15700;DHT22;7950;42.744;23.174;2023-02-28T17:12:43;7.50;99.90